Tiempo atmosférico en la estación meteorológica de Bello, Teruel (1006 m.)



Fecha
DESCASC
Temp. máxima en grados centígrados (hora)
DESCASC
Temp. mínima en grados centígrados (hora)
DESCASC
Temp. media en grados centígrados
DESCASC
Racha de viento máxima en m/sg (hora)
DESCASC
Velocidad máxima media en intervalos de 10 minutos(hora)
DESCASC
Precipitaciones diarias en mm
DESCASC
Precipitaciones de 00:00 a 06:00 en mm
DESCASC
Precipitaciones de 06:00 a 12:00 en mm
DESCASC
Precipitaciones de 12:00 a 18:00 en mm
DESCASC
Precipitaciones de 18:00 a 24:00 en mm
DESCASC
08-12-2019 11.8 (14:30) -2.4 (07:20) 4.7 9.44 (14:50) 6.11 (14:50) 2 0 0 0 2
07-12-2019 11.4 (16:10) -2.2 (08:10) 4.6 3.33 (19:50) 3.33 (19:50) 0 0 0 0 0
06-12-2019 10.7 (16:30) 0.7 (23:59) 5.7 5.56 (14:30) 3.33 (14:00) 0.2 0.2 0 0 0
05-12-2019 5.8 (15:50) 3.3 (00:00) 4.6 9.72 (05:50) 7.22 (05:50) 0.2 0.2 0 0 0
04-12-2019 5.6 (19:10) 1.4 (00:00) 3.5 11.94 (16:20) 8.89 (16:30) 1.6 0 0 0 1.6
03-12-2019 3 (14:30) -1.4 (-00:0) 0.8 6.67 (12:30) 4.44 (15:10) 0.6 0 0 0 0.6
02-12-2019 6.2 (15:30) 1.5 (00:00) 3.8 7.78 (13:30) 5.28 (13:40) 0 0 0 0 0
01-12-2019 7.9 (14:30) 0.5 (00:00) 4.2 6.11 (08:00) 3.89 (12:50) 1.8 1.8 0 0 0
30-11-2019 14.2 (13:20) 4.3 (00:00) 9.3 13.06 (13:40) 8.06 (11:20) 3.6 0 0 0 3.6
29-11-2019 14.4 (14:20) 7.3 (00:00) 10.8 11.11 (01:50) 6.94 (01:50) 0 0 0 0 0
28-11-2019 10.6 (12:10) 5.3 (08:40) 8 11.39 (12:30) 6.94 (01:50) 0 0 0 0 0
27-11-2019 11.9 (14:50) 6.4 (00:00) 9.1 22.5 (00:30) 11.11 (00:30) 0 0 0 0 0
26-11-2019 14.1 (13:30) 6.1 (00:00) 10.1 19.72 (15:40) 12.5 (13:40) 0 0 0 0 0
25-11-2019 12.1 (13:30) 5.2 (00:00) 8.7 13.33 (09:30) 8.61 (05:40) 0 0 0 0 0
24-11-2019 8.3 (16:40) 2.5 (00:00) 5.4 11.67 (04:10) 6.67 (01:10) 0 0 0 0 0
23-11-2019 8.3 (15:40) 2.9 (00:00) 5.6 16.67 (12:00) 10.83 (14:50) 3 0.8 2.2 0 0
22-11-2019 11 (14:00) 1.4 (00:00) 6.2 21.67 (21:10) 12.78 (21:10) 1.6 0 0 1.2 0.4
21-11-2019 8.2 (12:10) 2.7 (00:00) 5.4 13.61 (13:20) 9.44 (13:10) 0.2 0 0 0.2 0
20-11-2019 9.4 (15:30) -2.8 (08:00) 3.3 7.22 (17:30) 5 (19:10) 0.6 0 0 0 0.6
19-11-2019 7.7 (15:30) -3.6 (-00:0) 2 8.33 (11:50) 5 (12:10) 0 0 0 0 0
18-11-2019 6.1 (16:00) -0.3 (00:00) 2.9 12.5 (13:30) 7.78 (12:40) 0.2 0.2 0 0 0
17-11-2019 7.9 (13:10) -1.5 (-00:0) 3.2 14.72 (14:30) 8.89 (14:10) 6.4 0 0 0.8 5.6
16-11-2019 5 (16:50) -0.2 (00:00) 2.4 9.17 (12:10) 5.28 (12:10) 0 0 0 0 0
15-11-2019 5.2 (15:40) 0.3 (00:00) 2.7 13.61 (12:30) 8.61 (13:00) 0.8 0 0 0 0.8
14-11-2019 8 (02:30) 0.7 (00:00) 4.3 15.56 (05:30) 8.61 (06:30) 6.2 0 5 0.2 1
13-11-2019 10.6 (15:20) 3.5 (00:00) 7.1 12.22 (07:30) 6.67 (07:40) 7 5.4 1.6 0 0
12-11-2019 8.4 (14:50) 0.3 (00:00) 4.3 11.11 (13:30) 6.67 (13:50) 0.8 0 0 0 0.8

Gráficas

Temp. máximas Temp. mínimas Temp. medias Precipitaciones Rachas de viento máximas Velocidades máximas media en intervalos de 10 minutos

Datos horarios

Fecha y hora oficial Temperatura (ºC) Velocidad del viento (km/h) Dirección del viento Racha (km/h) Dirección de racha Precipitación (mm) Presión (hPa) Tendencia (hPa) Humedad (%)
2019-12-11 23:00:00 1.9 10 Noroeste 19 Noroeste 0 -- -- 79
2019-12-11 22:00:00 1.8 12 Noroeste 22 Oeste 0 -- -- 80
2019-12-11 21:00:00 2 10 Noroeste 18 Noroeste 0 -- -- 83
2019-12-11 20:00:00 0.5 0 Calma 9 Oeste 0 -- -- 87
2019-12-11 19:00:00 2.2 8 Noroeste 24 Noroeste 0 -- -- 82
2019-12-11 18:00:00 3.3 14 Noroeste 39 Noroeste 0 -- -- 79
2019-12-11 17:00:00 4.7 19 Noroeste 35 Noroeste 0 -- -- 86
2019-12-11 16:00:00 5.1 17 Norte 32 Noroeste 0 -- -- 87
2019-12-11 15:00:00 5.3 21 Noroeste 33 Noroeste 0 -- -- 88
2019-12-11 14:00:00 4.6 16 Norte 28 Norte 0 -- -- 88
2019-12-11 13:00:00 5.6 17 Noroeste 32 Noroeste 0.2 -- -- 75
2019-12-11 12:00:00 5.1 9 Noroeste 24 Noroeste 0 -- -- 78
2019-12-11 11:00:00 3.6 10 Noroeste 21 Noroeste 0 -- -- 75
2019-12-11 10:00:00 3.1 9 Oeste 15 Oeste 0 -- -- 74
2019-12-11 09:00:00 -0.6 5 Sur 6 Sur 0 -- -- 90
2019-12-11 08:00:00 -1.9 6 Sudeste 10 Sur 0 -- -- 92
2019-12-11 07:00:00 -1.9 4 Sur 6 Sur 0 -- -- 92
2019-12-11 06:00:00 -1.9 2 Sudoeste 4 Sur 0 -- -- 91
2019-12-11 05:00:00 -1.2 2 Sudoeste 5 Sudoeste 0 -- -- 90
2019-12-11 04:00:00 -0.7 3 Sur 4 Sudoeste 0 -- -- 90
2019-12-11 03:00:00 0.6 0 Calma 6 Oeste 0 -- -- 89
2019-12-11 02:00:00 0 3 Sur 6 Sur 0 -- -- 88
2019-12-11 01:00:00 0.2 3 Sur 5 Sur 0 -- -- 86
2019-12-11 00:00:00 1.5 4 Norte 11 Oeste 0 -- -- 83
2019-12-10 23:00:00 0.8 4 Sudoeste 9 Sudoeste 0 -- -- 84
2019-12-10 22:00:00 2 6 Noroeste 11 Noroeste 0 -- -- 79
2019-12-10 21:00:00 3.3 3 Norte 11 Noroeste 0 -- -- 73
2019-12-10 20:00:00 2.8 10 Oeste 12 Oeste 0 -- -- 78
2019-12-10 19:00:00 4.7 5 Sudoeste 8 Sudoeste 0 -- -- 73
2019-12-10 18:00:00 7.2 3 Oeste 14 Noroeste 0 -- -- 64
2019-12-10 17:00:00 9.1 8 Norte 15 Norte 0 -- -- 55
2019-12-10 16:00:00 10.8 12 Norte 20 Noroeste 0 -- -- 50
2019-12-10 15:00:00 11.3 14 Noroeste 23 Noroeste 0 -- -- 53
2019-12-10 14:00:00 10.5 12 Noroeste 17 Noroeste 0 -- -- 57
2019-12-10 13:00:00 8.5 12 Noroeste 31 Norte 0 -- -- 66
2019-12-10 12:00:00 6 9 Noroeste 17 Noroeste 0 -- -- 77
2019-12-10 11:00:00 3.5 3 Sudeste 11 Norte 0 -- -- 85
2019-12-10 10:00:00 0.9 7 Norte 18 Noroeste 0 -- -- 90
2019-12-10 09:00:00 -2.4 3 Sudoeste 10 Noroeste 0 -- -- 95
2019-12-10 08:00:00 -3.3 5 Noroeste 6 Noroeste 0 -- -- 94
2019-12-10 07:00:00 -1.5 5 Noroeste 15 Oeste 0 -- -- 92
2019-12-10 06:00:00 -2.2 6 Oeste 8 Noroeste 0 -- -- 94
2019-12-10 05:00:00 -2.4 0 Calma 7 Sudoeste 0 -- -- 94
2019-12-10 04:00:00 -1.7 4 Sudoeste 9 Sudoeste 0 -- -- 94
2019-12-10 03:00:00 -0.9 2 Oeste 9 Oeste 0 -- -- 94
2019-12-10 02:00:00 -0.3 3 Noroeste 7 Noroeste 0 -- -- 93
2019-12-10 01:00:00 0.8 2 Norte 21 Noroeste 0 -- -- 88
2019-12-10 00:00:00 1.7 11 Noroeste 20 Noroeste 0 -- -- 89
2019-12-09 23:00:00 1.7 9 Noroeste 13 Noroeste 0 -- -- 90
2019-12-09 22:00:00 2.6 5 Noroeste 15 Noroeste 0 -- -- 88
2019-12-09 21:00:00 4 10 Noroeste 20 Noroeste 0 -- -- 84
2019-12-09 20:00:00 5.1 15 Noroeste 22 Noroeste 0 -- -- 82
2019-12-09 19:00:00 5.7 10 Oeste 26 Noroeste 0 -- -- 79
2019-12-09 18:00:00 7.1 15 Noroeste 28 Noroeste 0 -- -- 73
2019-12-09 17:00:00 8.5 18 Noroeste 33 Noroeste 0 -- -- 65
2019-12-09 16:00:00 8.8 21 Noroeste 37 Noroeste 0 -- -- 63
2019-12-09 15:00:00 8.7 17 Noroeste 38 Norte 0 -- -- 65
2019-12-09 14:00:00 8 24 Norte 44 Noroeste 0 -- -- 68
2019-12-09 13:00:00 7.8 22 Norte 40 Noroeste 0 -- -- 70
2019-12-09 12:00:00 7.2 20 Norte 33 Norte 0 -- -- 76
2019-12-09 11:00:00 6.1 16 Norte 29 Noroeste 0 -- -- 83
2019-12-09 10:00:00 4.7 12 Norte 21 Noroeste 0 -- -- 84
2019-12-09 09:00:00 2.4 3 Sudoeste 20 Noroeste 0 -- -- 89
2019-12-09 08:00:00 3.5 8 Noroeste 17 Noroeste 0 -- -- 88
2019-12-09 07:00:00 3.7 10 Noroeste 20 Noroeste 0 -- -- 91
2019-12-09 06:00:00 4.1 4 Noroeste 17 Noroeste 0 -- -- 89
2019-12-09 05:00:00 4.2 9 Noroeste 23 Oeste 0 -- -- 91
2019-12-09 04:00:00 5.3 12 Noroeste 28 Noroeste 0 -- -- 90
2019-12-09 03:00:00 6.6 17 Noroeste 30 Noroeste 0 -- -- 88
2019-12-09 02:00:00 7.1 15 Noroeste 29 Noroeste 0 -- -- 93
2019-12-09 01:00:00 7.1 9 Noroeste 22 Noroeste 0 -- -- 94
2019-12-09 00:00:00 7.5 9 Noroeste 19 Noroeste 0 -- -- 95
2019-12-08 23:00:00 7.5 9 Norte 17 Noroeste 0 -- -- 96
2019-12-08 22:00:00 7.2 6 Noroeste 14 Noroeste 0 -- -- 97
2019-12-08 21:00:00 7.3 4 Noroeste 8 Noroeste 0.6 -- -- 96
2019-12-08 20:00:00 7.3 5 Noroeste 11 Noroeste 1 -- -- 95
2019-12-08 19:00:00 7.7 7 Noroeste 14 Norte 0.4 -- -- 93
2019-12-08 18:00:00 8.3 9 Noroeste 17 Noroeste 0 -- -- 89
2019-12-08 17:00:00 9.2 9 Noroeste 25 Noroeste 0 -- -- 82
2019-12-08 16:00:00 9.9 13 Norte 28 Norte 0 -- -- 77
2019-12-08 15:00:00 10.9 20 Noroeste 34 Norte 0 -- -- 72
2019-12-08 14:00:00 11.4 13 Noroeste 25 Oeste 0 -- -- 73
2019-12-08 13:00:00 10.3 13 Noroeste 22 Oeste 0 -- -- 74
2019-12-08 12:00:00 6.8 6 Oeste 12 Noroeste 0 -- -- 91
2019-12-08 11:00:00 3.3 3 Este 5 Este 0 -- -- 97
2019-12-08 10:00:00 0.9 0 Calma 3 Sudoeste 0 -- -- 97
2019-12-08 09:00:00 -2 0 Calma 6 Oeste 0 -- -- 98
2019-12-08 08:00:00 -1.9 3 Sudoeste 8 Sur 0 -- -- 97
2019-12-08 07:00:00 -1.7 2 Norte 5 Oeste 0 -- -- 97
2019-12-08 06:00:00 -1.9 3 Noroeste 4 Nordeste 0 -- -- 97
2019-12-08 05:00:00 -0.3 2 Noroeste 7 Oeste 0 -- -- 98
2019-12-08 04:00:00 -0.8 4 Oeste 8 Sur 0 -- -- 97
2019-12-08 03:00:00 -0.7 3 Sudoeste 4 Oeste 0 -- -- 97
2019-12-08 02:00:00 -0.4 0 Calma 3 Sudoeste 0 -- -- 97
2019-12-08 01:00:00 0.1 0 Calma 4 Nordeste 0 -- -- 96
2019-12-08 00:00:00 1.2 4 Oeste 11 Oeste 0 -- -- 96
2019-12-07 23:00:00 0.9 8 Oeste 11 Oeste 0 -- -- 96
2019-12-07 22:00:00 2 4 Oeste 7 Oeste 0 -- -- 94
2019-12-07 21:00:00 2.8 0 Calma 10 Sudoeste 0 -- -- 94
2019-12-07 20:00:00 3.5 9 Sudoeste 12 Sudoeste 0 -- -- 93
2019-12-07 19:00:00 5 6 Sudoeste 7 Sudoeste 0 -- -- 89
2019-12-07 18:00:00 8.4 2 Nordeste 9 Nordeste 0 -- -- 82
2019-12-07 17:00:00 10.7 2 Este 7 Nordeste 0 -- -- 71
2019-12-07 16:00:00 11.1 3 Norte 6 Este 0 -- -- 73
2019-12-07 15:00:00 10.1 3 Nordeste 9 Norte 0 -- -- 77
2019-12-07 14:00:00 8.8 5 Este 9 Este 0 -- -- 83
2019-12-07 13:00:00 6.2 5 Este 8 Este 0 -- -- 100
2019-12-07 12:00:00 3 4 Este 6 Este 0 -- -- 99
2019-12-07 11:00:00 0.4 2 Oeste 5 Norte 0 -- -- 99
2019-12-07 10:00:00 -0.7 0 Calma 7 Sur 0 -- -- 99
2019-12-07 09:00:00 -1.5 0 Calma 5 Sur 0 -- -- 98
2019-12-07 08:00:00 -2.1 0 Calma 6 Norte 0 -- -- 98
2019-12-07 07:00:00 -1.1 3 Noroeste 4 Norte 0 -- -- 98
2019-12-07 06:00:00 -1.2 0 Calma 6 Sur 0 -- -- 98
2019-12-07 05:00:00 -0.7 0 Calma 8 Sudoeste 0 -- -- 97
2019-12-07 04:00:00 -0.4 5 Oeste 9 Oeste 0 -- -- 97
2019-12-07 03:00:00 -0.4 3 Oeste 6 Noroeste 0 -- -- 96
2019-12-07 02:00:00 -0.1 2 Norte 4 Noroeste 0 -- -- 96
2019-12-07 01:00:00 0.1 3 Sur 5 Sur 0 -- -- 96
2019-12-07 00:00:00 0.7 3 Noroeste 6 Oeste 0 -- -- 95
2019-12-06 23:00:00 1.1 0 Calma 4 Oeste 0 -- -- 94
2019-12-06 22:00:00 2.2 3 Sudoeste 12 Sudoeste 0 -- -- 93
2019-12-06 21:00:00 4 4 Noroeste 9 Norte 0 -- -- 92
2019-12-06 20:00:00 4.7 2 Noroeste 6 Este 0 -- -- 92
2019-12-06 19:00:00 5.5 3 Oeste 12 Sur 0 -- -- 87
2019-12-06 18:00:00 7.4 6 Sudoeste 10 Sur 0 -- -- 83
2019-12-06 17:00:00 10.4 5 Sudoeste 9 Oeste 0 -- -- 72
2019-12-06 16:00:00 10.4 5 Nordeste 9 Nordeste 0 -- -- 72
2019-12-06 15:00:00 9.7 8 Sudeste 20 Sur 0 -- -- 73
2019-12-06 14:00:00 9.5 12 Sur 16 Sur 0 -- -- 75
2019-12-06 13:00:00 9.2 6 Sudeste 12 Sur 0 -- -- 80
2019-12-06 12:00:00 8 8 Sur 19 Sur 0 -- -- 87
2019-12-06 11:00:00 6.7 4 Sur 8 Sudeste 0 -- -- 89
2019-12-06 10:00:00 5.2 3 Sudoeste 4 Sudoeste 0 -- -- 92
2019-12-06 09:00:00 4.7 2 Oeste 4 Noroeste 0 -- -- 94
2019-12-06 08:00:00 4.6 0 Calma 5 Sur 0 -- -- 94
2019-12-06 07:00:00 4.5 3 Sudoeste 4 Sudoeste 0 -- -- 94
2019-12-06 06:00:00 4.4 0 Calma 5 Norte 0 -- -- 93
2019-12-06 05:00:00 4.4 4 Este 6 Este 0 -- -- 93
2019-12-06 04:00:00 4.4 3 Este 6 Nordeste 0 -- -- 93
2019-12-06 03:00:00 4.3 4 Sudoeste 6 Nordeste 0.2 -- -- 94
2019-12-06 02:00:00 4.4 6 Nordeste 15 Este 0 -- -- 93
2019-12-06 01:00:00 4.3 6 Este 13 Este 0 -- -- 93
2019-12-06 00:00:00 4.7 6 Nordeste 14 Nordeste 0 -- -- 94
2019-12-05 23:00:00 5.1 9 Nordeste 19 Nordeste 0 -- -- 92
2019-12-05 22:00:00 5.2 6 Nordeste 14 Nordeste 0 -- -- 92
2019-12-05 21:00:00 5.3 6 Este 15 Este 0 -- -- 92
2019-12-05 20:00:00 5.3 8 Nordeste 15 Nordeste 0 -- -- 95
2019-12-05 19:00:00 5.1 8 Nordeste 16 Este 0 -- -- 95
2019-12-05 18:00:00 5.2 8 Nordeste 15 Este 0 -- -- 94
2019-12-05 17:00:00 5.6 12 Nordeste 19 Nordeste 0 -- -- 93
2019-12-05 16:00:00 5.7 15 Nordeste 23 Nordeste 0 -- -- 93
2019-12-05 15:00:00 5.3 13 Nordeste 33 Nordeste 0 -- -- 95
2019-12-05 14:00:00 5 20 Nordeste 27 Nordeste 0 -- -- 94
2019-12-05 13:00:00 5 19 Nordeste 28 Nordeste 0 -- -- 95
2019-12-05 12:00:00 4.7 20 Nordeste 31 Nordeste 0 -- -- 96
2019-12-05 11:00:00 4.3 23 Nordeste 31 Nordeste 0 -- -- 97
2019-12-05 10:00:00 3.8 14 Nordeste 22 Nordeste 0 -- -- 98
2019-12-05 09:00:00 3.6 11 Nordeste 29 Nordeste 0 -- -- 98
2019-12-05 08:00:00 3.5 20 Nordeste 35 Nordeste 0 -- -- 97
2019-12-05 07:00:00 3.3 20 Nordeste 31 Nordeste 0 -- -- 98
2019-12-05 06:00:00 3.5 22 Nordeste 35 Nordeste 0 -- -- 97
2019-12-05 05:00:00 4 21 Nordeste 28 Nordeste 0 -- -- 97
2019-12-05 04:00:00 4.1 18 Nordeste 24 Nordeste 0 -- -- 96
2019-12-05 03:00:00 4 14 Nordeste 27 Nordeste 0 -- -- 96
2019-12-05 02:00:00 3.8 18 Nordeste 32 Este 0 -- -- 96
2019-12-05 01:00:00 4 19 Nordeste 35 Nordeste 0.2 -- -- 94
2019-12-05 00:00:00 3.9 17 Norte 28 Norte 0 -- -- 94
2019-12-04 23:00:00 4.1 17 Nordeste 30 Nordeste 0.2 -- -- 93
2019-12-04 22:00:00 4.7 17 Nordeste 36 Nordeste 0.2 -- -- 93
2019-12-04 21:00:00 5 22 Norte 32 Norte 0.2 -- -- 92
2019-12-04 20:00:00 5 13 Nordeste 30 Nordeste 0.6 -- -- 93
2019-12-04 19:00:00 5.5 16 Nordeste 28 Nordeste 0.4 -- -- 95
2019-12-04 18:00:00 5.3 14 Norte 40 Nordeste 0 -- -- 95
2019-12-04 17:00:00 5.2 25 Nordeste 43 Nordeste 0 -- -- 94
2019-12-04 16:00:00 5.2 23 Nordeste 42 Nordeste 0 -- -- 93
2019-12-04 15:00:00 4.7 25 Nordeste 39 Nordeste 0 -- -- 93
2019-12-04 14:00:00 4.7 25 Nordeste 34 Nordeste 0 -- -- 92
2019-12-04 13:00:00 4 20 Nordeste 30 Nordeste 0 -- -- 94
2019-12-04 12:00:00 4.5 19 Nordeste 31 Nordeste 0 -- -- 91
2019-12-04 11:00:00 4 12 Nordeste 23 Nordeste 0 -- -- 94
2019-12-04 10:00:00 3.7 15 Nordeste 24 Nordeste 0 -- -- 91
2019-12-04 09:00:00 3.7 8 Nordeste 19 Nordeste 0 -- -- 92
2019-12-04 08:00:00 3.3 2 Nordeste 12 Este 0 -- -- 95
2019-12-04 07:00:00 2.8 6 Nordeste 10 Nordeste 0 -- -- 96
2019-12-04 06:00:00 2.3 2 Sudeste 6 Nordeste 0 -- -- 96
2019-12-04 05:00:00 1.9 5 Nordeste 11 Este 0 -- -- 96
2019-12-04 04:00:00 1.8 10 Nordeste 14 Nordeste 0 -- -- 96
2019-12-04 03:00:00 1.7 6 Nordeste 16 Nordeste 0 -- -- 94
2019-12-04 02:00:00 1.8 4 Nordeste 6 Este 0 -- -- 92
2019-12-04 01:00:00 1.6 4 Este 8 Norte 0 -- -- 93
2019-12-04 00:00:00 1.4 4 Noroeste 12 Este 0 -- -- 94
2019-12-03 23:00:00 1 8 Este 11 Este 0.6 -- -- 93
2019-12-03 22:00:00 1.1 5 Este 13 Nordeste 0 -- -- 92
2019-12-03 21:00:00 0.7 8 Este 13 Nordeste 0 -- -- 95
2019-12-03 20:00:00 0.4 4 Nordeste 10 Este 0 -- -- 94
2019-12-03 19:00:00 0.9 6 Nordeste 18 Nordeste 0 -- -- 92
2019-12-03 18:00:00 1.9 15 Nordeste 22 Nordeste 0 -- -- 89
2019-12-03 17:00:00 2.6 10 Este 20 Nordeste 0 -- -- 86
2019-12-03 16:00:00 2.6 12 Nordeste 23 Nordeste 0 -- -- 84
2019-12-03 15:00:00 2.8 15 Nordeste 22 Nordeste 0 -- -- 83
2019-12-03 14:00:00 2.7 15 Nordeste 21 Nordeste 0 -- -- 85
2019-12-03 13:00:00 2.1 11 Este 24 Sudeste 0 -- -- 86
2019-12-03 12:00:00 1.4 10 Sudeste 17 Este 0 -- -- 88
2019-12-03 11:00:00 0.7 13 Este 21 Este 0 -- -- 89
2019-12-03 10:00:00 0.2 13 Este 17 Este 0 -- -- 89
2019-12-03 09:00:00 0 9 Este 18 Este 0 -- -- 91
2019-12-03 08:00:00 -0.2 12 Este 19 Este 0 -- -- 92
2019-12-03 07:00:00 -0.3 9 Este 16 Este 0 -- -- 93
2019-12-03 06:00:00 -0.6 11 Este 15 Este 0 -- -- 94
2019-12-03 05:00:00 -1.4 10 Sudeste 13 Sudeste 0 -- -- 95
2019-12-03 04:00:00 -1 9 Este 19 Este 0 -- -- 94
2019-12-03 03:00:00 -0.5 13 Este 22 Nordeste 0 -- -- 94
2019-12-03 02:00:00 -0.3 12 Este 19 Este 0 -- -- 93
2019-12-03 01:00:00 1 13 Este 21 Este 0 -- -- 91
2019-12-03 00:00:00 1.5 12 Este 23 Este 0 -- -- 92
2019-12-02 23:00:00 2 14 Este 21 Este 0 -- -- 91
2019-12-02 22:00:00 2.5 12 Este 18 Nordeste 0 -- -- 91
2019-12-02 21:00:00 2.6 10 Nordeste 25 Este 0 -- -- 91
2019-12-02 20:00:00 3 17 Nordeste 27 Nordeste 0 -- -- 89
2019-12-02 19:00:00 4.2 17 Nordeste 28 Nordeste 0 -- -- 86
2019-12-02 18:00:00 5 12 Este 28 Nordeste 0 -- -- 86
2019-12-02 17:00:00 5.6 16 Nordeste 24 Nordeste 0 -- -- 83
2019-12-02 16:00:00 6 18 Nordeste 27 Nordeste 0 -- -- 81
2019-12-02 15:00:00 5.9 17 Nordeste 26 Este 0 -- -- 78
2019-12-02 14:00:00 5.8 18 Este 28 Este 0 -- -- 81
2019-12-02 13:00:00 5.7 18 Nordeste 27 Este 0 -- -- 81
2019-12-02 12:00:00 4.5 14 Este 23 Este 0 -- -- 90
2019-12-02 11:00:00 4.1 16 Este 23 Nordeste 0 -- -- 92
2019-12-02 10:00:00 3.8 10 Nordeste 17 Nordeste 0 -- -- 93
2019-12-02 09:00:00 3.6 12 Nordeste 19 Nordeste 0 -- -- 93
2019-12-02 08:00:00 3.6 13 Nordeste 20 Nordeste 0 -- -- 90
2019-12-02 07:00:00 3.7 8 Nordeste 17 Nordeste 0 -- -- 93
2019-12-02 06:00:00 3.8 10 Este 17 Este 0 -- -- 93
2019-12-02 05:00:00 3.8 9 Este 16 Nordeste 0 -- -- 93
2019-12-02 04:00:00 4.1 13 Nordeste 22 Nordeste 0 -- -- 91
2019-12-02 03:00:00 3.8 6 Nordeste 9 Nordeste 0 -- -- 94
2019-12-02 02:00:00 3.5 0 Calma 5 Este 0 -- -- 94
2019-12-02 01:00:00 3.2 4 Este 6 Sur 0 -- -- 95
2019-12-02 00:00:00 2.6 5 Sudeste 8 Sudeste 0 -- -- 96
2019-12-01 23:00:00 1.1 6 Sur 7 Sur 0 -- -- 96
2019-12-01 22:00:00 1 4 Oeste 6 Sudoeste 0 -- -- 94
2019-12-01 21:00:00 1.5 5 Oeste 8 Oeste 0 -- -- 92
2019-12-01 20:00:00 2.5 3 Noroeste 7 Noroeste 0 -- -- 92
2019-12-01 19:00:00 3.6 0 Calma 6 Este 0 -- -- 89
2019-12-01 18:00:00 5.4 5 Este 6 Este 0 -- -- 84
2019-12-01 17:00:00 6.8 5 Nordeste 17 Este 0 -- -- 79
2019-12-01 16:00:00 7 11 Este 20 Este 0 -- -- 80
2019-12-01 15:00:00 7.6 2 Sudeste 13 Sudeste 0 -- -- 75
2019-12-01 14:00:00 7.5 10 Sudeste 20 Sudeste 0 -- -- 79
2019-12-01 13:00:00 7.5 13 Sudeste 19 Sudeste 0 -- -- 81
2019-12-01 12:00:00 7 9 Este 14 Este 0 -- -- 83
2019-12-01 11:00:00 5.5 5 Sudoeste 9 Oeste 0 -- -- 87
2019-12-01 10:00:00 4.2 4 Sudoeste 8 Nordeste 0 -- -- 91
2019-12-01 09:00:00 2.7 5 Sur 17 Noroeste 0 -- -- 94
2019-12-01 08:00:00 3.1 13 Oeste 22 Oeste 0 -- -- 96
2019-12-01 07:00:00 2.6 5 Sudoeste 13 Sudoeste 0 -- -- 96
2019-12-01 06:00:00 2.8 4 Oeste 6 Sudoeste 0 -- -- 96
2019-12-01 05:00:00 2.9 4 Sudoeste 7 Sudoeste 0 -- -- 95
2019-12-01 04:00:00 3.5 3 Sur 8 Sudeste 0 -- -- 94
2019-12-01 03:00:00 4 4 Sudeste 13 Sur 0.2 -- -- 93
2019-12-01 02:00:00 3.9 7 Sur 10 Sur 0 -- -- 93
2019-12-01 01:00:00 3.9 0 Calma 18 Noroeste 1.6 -- -- 92
2019-12-01 00:00:00 4.3 14 Noroeste 34 Noroeste 0.6 -- -- 90
2019-11-30 23:00:00 5.1 20 Noroeste 42 Noroeste 1.6 -- -- 85
2019-11-30 22:00:00 6.9 20 Norte 42 Norte 1.4 -- -- 94
2019-11-30 21:00:00 10.6 9 Noroeste 30 Oeste 0 -- -- 80
2019-11-30 20:00:00 11.2 18 Oeste 27 Oeste 0 -- -- 76
2019-11-30 19:00:00 11.3 17 Sudoeste 33 Sudoeste 0 -- -- 74
2019-11-30 18:00:00 11.1 18 Sudoeste 32 Oeste 0 -- -- 74
2019-11-30 17:00:00 12 13 Sudoeste 27 Oeste 0 -- -- 71
2019-11-30 16:00:00 13.4 21 Oeste 39 Oeste 0 -- -- 65
2019-11-30 15:00:00 12.7 27 Oeste 41 Sudoeste 0 -- -- 69
2019-11-30 14:00:00 13.6 27 Oeste 47 Oeste 0 -- -- 66
2019-11-30 13:00:00 13.8 22 Oeste 40 Sudoeste 0 -- -- 66
2019-11-30 12:00:00 12.7 28 Oeste 45 Oeste 0 -- -- 71
2019-11-30 11:00:00 12 25 Oeste 40 Oeste 0 -- -- 73
2019-11-30 10:00:00 10.6 10 Oeste 18 Oeste 0 -- -- 87
2019-11-30 09:00:00 8 6 Sur 10 Sudoeste 0 -- -- 91
2019-11-30 08:00:00 8.8 5 Sudoeste 16 Sudoeste 0 -- -- 86
2019-11-30 07:00:00 9.2 3 Sudoeste 27 Sudoeste 0 -- -- 84
2019-11-30 06:00:00 9.2 12 Sudoeste 18 Sudoeste 0 -- -- 89
2019-11-30 05:00:00 7.6 4 Sudoeste 16 Oeste 0 -- -- 93
2019-11-30 04:00:00 6.8 6 Este 11 Sudoeste 0 -- -- 92
2019-11-30 03:00:00 8.1 6 Sudoeste 10 Oeste 0 -- -- 92
2019-11-30 02:00:00 9.4 9 Oeste 14 Oeste 0 -- -- 91
2019-11-30 01:00:00 9.3 8 Oeste 14 Oeste 0 -- -- 92
2019-11-30 00:00:00 8.7 5 Sudoeste 9 Oeste 0 -- -- 94
2019-11-29 23:00:00 7.4 6 Oeste 13 Noroeste 0 -- -- 94
2019-11-29 22:00:00 9 6 Oeste 13 Oeste 0 -- -- 89
2019-11-29 21:00:00 9.9 6 Oeste 17 Oeste 0 -- -- 89
2019-11-29 20:00:00 10.5 12 Oeste 20 Oeste 0 -- -- 87
2019-11-29 19:00:00 11 9 Oeste 18 Oeste 0 -- -- 85
2019-11-29 18:00:00 12 13 Oeste 23 Oeste 0 -- -- 79
2019-11-29 17:00:00 12.8 15 Oeste 24 Oeste 0 -- -- 74
2019-11-29 16:00:00 13.2 16 Oeste 35 Oeste 0 -- -- 66
2019-11-29 15:00:00 14.3 22 Oeste 36 Oeste 0 -- -- 64
2019-11-29 14:00:00 14.1 22 Oeste 35 Noroeste 0 -- -- 66
2019-11-29 13:00:00 12.7 17 Oeste 28 Noroeste 0 -- -- 74
2019-11-29 12:00:00 11.8 17 Noroeste 32 Oeste 0 -- -- 81
2019-11-29 11:00:00 10.6 18 Oeste 32 Oeste 0 -- -- 87
2019-11-29 10:00:00 10 18 Oeste 26 Oeste 0 -- -- 90
2019-11-29 09:00:00 9.3 12 Oeste 22 Oeste 0 -- -- 90
2019-11-29 08:00:00 9 12 Oeste 24 Oeste 0 -- -- 90
2019-11-29 07:00:00 9.2 14 Oeste 24 Oeste 0 -- -- 88
2019-11-29 06:00:00 9 13 Oeste 30 Oeste 0 -- -- 89
2019-11-29 05:00:00 9.2 17 Oeste 32 Oeste 0 -- -- 88
2019-11-29 04:00:00 9.2 19 Oeste 33 Oeste 0 -- -- 88
2019-11-29 03:00:00 9.1 18 Oeste 29 Oeste 0 -- -- 87
2019-11-29 02:00:00 9 19 Oeste 40 Oeste 0 -- -- 86
2019-11-29 01:00:00 9.1 19 Oeste 36 Oeste 0 -- -- 85
2019-11-29 00:00:00 8.8 15 Oeste 36 Oeste 0 -- -- 84
2019-11-28 23:00:00 9 19 Oeste 40 Oeste 0 -- -- 83
2019-11-28 22:00:00 8.9 19 Oeste 35 Oeste 0 -- -- 83
2019-11-28 21:00:00 8.8 14 Oeste 27 Oeste 0 -- -- 81
2019-11-28 20:00:00 8.1 13 Oeste 23 Oeste 0 -- -- 82
2019-11-28 19:00:00 8.1 13 Oeste 27 Oeste 0 -- -- 81
2019-11-28 18:00:00 8.5 8 Oeste 21 Oeste 0 -- -- 79
2019-11-28 17:00:00 9.3 12 Oeste 33 Sudoeste 0 -- -- 77
2019-11-28 16:00:00 9.6 21 Oeste 35 Oeste 0 -- -- 77
2019-11-28 15:00:00 10.5 21 Oeste 39 Oeste 0 -- -- 72
2019-11-28 14:00:00 10.6 21 Oeste 33 Oeste 0 -- -- 71
2019-11-28 13:00:00 10.2 23 Oeste 41 Oeste 0 -- -- 74
2019-11-28 12:00:00 10.4 21 Oeste 35 Oeste 0 -- -- 74
2019-11-28 11:00:00 9.7 18 Oeste 31 Oeste 0 -- -- 77
2019-11-28 10:00:00 7.9 20 Oeste 37 Oeste 0 -- -- 83
2019-11-28 09:00:00 5.9 3 Sudeste 14 Oeste 0 -- -- 90
2019-11-28 08:00:00 6.1 10 Oeste 29 Oeste 0 -- -- 86
2019-11-28 07:00:00 5.5 11 Oeste 19 Oeste 0 -- -- 87
2019-11-28 06:00:00 6.7 10 Oeste 24 Oeste 0 -- -- 85
2019-11-28 05:00:00 6.8 13 Oeste 23 Oeste 0 -- -- 84
2019-11-28 04:00:00 6.5 13 Noroeste 39 Oeste 0 -- -- 84
2019-11-28 03:00:00 6.8 20 Oeste 36 Oeste 0 -- -- 84
2019-11-28 02:00:00 7.1 23 Oeste 37 Sudoeste 0 -- -- 83
2019-11-28 01:00:00 7.3 19 Oeste 30 Oeste 0 -- -- 82
2019-11-28 00:00:00 7.4 18 Oeste 30 Oeste 0 -- -- 81
2019-11-27 23:00:00 7.5 18 Oeste 28 Oeste 0 -- -- 81
2019-11-27 22:00:00 7.2 18 Oeste 44 Oeste 0 -- -- 82
2019-11-27 21:00:00 8.1 24 Oeste 36 Oeste 0 -- -- 77
2019-11-27 20:00:00 8.3 22 Oeste 36 Oeste 0 -- -- 75
2019-11-27 19:00:00 8.7 14 Oeste 29 Oeste 0 -- -- 72
2019-11-27 18:00:00 9.2 15 Oeste 29 Oeste 0 -- -- 69
2019-11-27 17:00:00 9.7 18 Oeste 33 Oeste 0 -- -- 66
2019-11-27 16:00:00 10.4 24 Oeste 45 Oeste 0 -- -- 59
2019-11-27 15:00:00 11.9 23 Oeste 40 Oeste 0 -- -- 59
2019-11-27 14:00:00 11.5 24 Oeste 44 Oeste 0 -- -- 59
2019-11-27 06:00:00 -- -- -- -- -- -- -- -- --
2019-11-27 05:00:00 9.6 27 Oeste 53 Oeste 0 -- -- 81
2019-11-27 04:00:00 9.9 34 Oeste 55 Oeste 0 -- -- 80
2019-11-27 03:00:00 9.9 31 Oeste 71 Oeste 0 -- -- 82
2019-11-27 02:00:00 10.4 35 Oeste 55 Oeste 0 -- -- 74
2019-11-27 01:00:00 10.8 28 Oeste 81 Oeste 0 -- -- 73
2019-11-27 00:00:00 11.7 25 Oeste 47 Oeste 0 -- -- 79
2019-11-26 23:00:00 11.6 22 Oeste 39 Sudoeste 0 -- -- 82
2019-11-26 22:00:00 11.5 18 Sudoeste 36 Sudoeste 0 -- -- 84
2019-11-26 21:00:00 12.3 25 Sudoeste 38 Sudoeste 0 -- -- 78
2019-11-26 20:00:00 11.8 19 Sudoeste 31 Sudoeste 0 -- -- 77
2019-11-26 19:00:00 11.3 15 Sudoeste 28 Noroeste 0 -- -- 79
2019-11-26 18:00:00 11.8 17 Oeste 48 Oeste 0 -- -- 74
2019-11-26 17:00:00 12.9 23 Oeste 57 Oeste 0 -- -- 69
2019-11-26 16:00:00 13.6 43 Oeste 71 Oeste 0 -- -- 70
2019-11-26 15:00:00 13.7 31 Oeste 58 Oeste 0 -- -- 69
2019-11-26 14:00:00 13.8 41 Oeste 66 Oeste 0 -- -- 69
2019-11-26 13:00:00 13.8 21 Oeste 32 Sudoeste 0 -- -- 71
2019-11-26 12:00:00 12.7 20 Oeste 38 Oeste 0 -- -- 73
2019-11-26 11:00:00 11.3 24 Oeste 36 Oeste 0 -- -- 76
2019-11-26 10:00:00 9.8 16 Oeste 30 Oeste 0 -- -- 81
2019-11-26 09:00:00 6.7 3 Norte 20 Oeste 0 -- -- 90
2019-11-26 08:00:00 6.8 6 Noroeste 16 Sudoeste 0 -- -- 90
2019-11-26 07:00:00 7.6 8 Noroeste 27 Sudoeste 0 -- -- 86
2019-11-26 06:00:00 6.1 0 Calma 8 Oeste 0 -- -- 91
2019-11-26 05:00:00 6.1 0 Calma 15 Oeste 0 -- -- 90
2019-11-26 04:00:00 7.8 12 Oeste 29 Noroeste 0 -- -- 87
2019-11-26 03:00:00 8.5 13 Noroeste 31 Noroeste 0 -- -- 87
2019-11-26 02:00:00 8.5 22 Noroeste 33 Noroeste 0 -- -- 86
2019-11-26 01:00:00 7.9 16 Oeste 23 Oeste 0 -- -- 91
2019-11-26 00:00:00 7.5 9 Oeste 16 Oeste 0 -- -- 92
2019-11-25 23:00:00 6.7 7 Sudoeste 9 Sudoeste 0 -- -- 94
2019-11-25 22:00:00 7.3 5 Sur 10 Sudeste 0 -- -- 89
2019-11-25 21:00:00 7.7 3 Este 18 Oeste 0 -- -- 88
2019-11-25 20:00:00 7.2 10 Oeste 16 Oeste 0 -- -- 89
2019-11-25 19:00:00 9.4 12 Oeste 18 Noroeste 0 -- -- 82
2019-11-25 18:00:00 10.5 10 Oeste 27 Oeste 0 -- -- 78
2019-11-25 17:00:00 11.2 19 Oeste 32 Oeste 0 -- -- 74
2019-11-25 16:00:00 11.6 19 Oeste 41 Oeste 0 -- -- 72
2019-11-25 15:00:00 11.4 23 Oeste 39 Oeste 0 -- -- 72
2019-11-25 14:00:00 11.5 21 Oeste 38 Oeste 0 -- -- 74
2019-11-25 13:00:00 11.8 20 Noroeste 31 Noroeste 0 -- -- 73
2019-11-25 12:00:00 10.6 22 Oeste 37 Oeste 0 -- -- 82
2019-11-25 11:00:00 9.8 24 Oeste 39 Oeste 0 -- -- 84
2019-11-25 10:00:00 8.3 22 Oeste 48 Oeste 0 -- -- 89
2019-11-25 09:00:00 7.7 19 Oeste 40 Oeste 0 -- -- 92
2019-11-25 08:00:00 6.9 21 Oeste 44 Oeste 0 -- -- 91
2019-11-25 07:00:00 7.2 23 Oeste 41 Oeste 0 -- -- 90
2019-11-25 06:00:00 7.4 27 Oeste 47 Oeste 0 -- -- 88
2019-11-25 05:00:00 7.1 25 Oeste 43 Oeste 0 -- -- 87
2019-11-25 04:00:00 6.9 27 Oeste 42 Oeste 0 -- -- 88
2019-11-25 03:00:00 5.9 17 Oeste 39 Oeste 0 -- -- 89
2019-11-25 02:00:00 5.9 24 Oeste 38 Oeste 0 -- -- 84
2019-11-25 01:00:00 5.2 17 Oeste 27 Oeste 0 -- -- 83
2019-11-25 00:00:00 5.2 10 Oeste 28 Oeste 0 -- -- 77
2019-11-24 23:00:00 5.2 17 Oeste 30 Oeste 0 -- -- 79
2019-11-24 22:00:00 4.7 3 Oeste 19 Oeste 0 -- -- 80
2019-11-24 21:00:00 4.6 10 Noroeste 26 Oeste 0 -- -- 76
2019-11-24 20:00:00 4.6 13 Noroeste 34 Oeste 0 -- -- 77
2019-11-24 19:00:00 5.4 18 Noroeste 28 Oeste 0 -- -- 75
2019-11-24 18:00:00 6.4 10 Noroeste 27 Noroeste 0 -- -- 70
2019-11-24 17:00:00 8 18 Noroeste 31 Noroeste 0 -- -- 64
2019-11-24 16:00:00 7 17 Noroeste 31 Norte 0 -- -- 71
2019-11-24 15:00:00 7.6 19 Noroeste 36 Noroeste 0 -- -- 69
2019-11-24 14:00:00 7.6 19 Noroeste 29 Noroeste 0 -- -- 70
2019-11-24 13:00:00 6.4 14 Norte 30 Norte 0 -- -- 74
2019-11-24 12:00:00 5.6 14 Norte 33 Noroeste 0 -- -- 78
2019-11-24 11:00:00 5.3 22 Noroeste 36 Noroeste 0 -- -- 76
2019-11-24 10:00:00 4.1 20 Noroeste 32 Noroeste 0 -- -- 80
2019-11-24 09:00:00 3.5 10 Norte 22 Noroeste 0 -- -- 81
2019-11-24 08:00:00 3 13 Noroeste 25 Noroeste 0 -- -- 84
2019-11-24 07:00:00 2.6 9 Noroeste 33 Noroeste 0 -- -- 85
2019-11-24 06:00:00 2.6 15 Noroeste 38 Noroeste 0 -- -- 84
2019-11-24 05:00:00 3.2 18 Noroeste 42 Noroeste 0 -- -- 82
2019-11-24 04:00:00 4.2 22 Noroeste 37 Noroeste 0 -- -- 79
2019-11-24 03:00:00 4.4 19 Noroeste 39 Noroeste 0 -- -- 77
2019-11-24 02:00:00 4.3 15 Noroeste 39 Noroeste 0 -- -- 77
2019-11-24 01:00:00 5.2 23 Noroeste 39 Noroeste 0 -- -- 75
2019-11-24 00:00:00 4.3 17 Noroeste 32 Noroeste 0 -- -- 79
2019-11-23 23:00:00 4.6 18 Noroeste 28 Noroeste 0 -- -- 77
2019-11-23 22:00:00 4 9 Oeste 31 Oeste 0 -- -- 76
2019-11-23 21:00:00 4.1 16 Noroeste 30 Noroeste 0 -- -- 77
2019-11-23 20:00:00 4.8 22 Noroeste 33 Noroeste 0 -- -- 74
2019-11-23 19:00:00 4.9 16 Noroeste 30 Noroeste 0 -- -- 73
2019-11-23 18:00:00 5.6 18 Noroeste 46 Noroeste 0 -- -- 69
2019-11-23 17:00:00 7.1 28 Noroeste 57 Noroeste 0 -- -- 61
2019-11-23 16:00:00 7.8 32 Noroeste 59 Noroeste 0 -- -- 58
2019-11-23 15:00:00 7.9 37 Noroeste 56 Noroeste 0 -- -- 61
2019-11-23 14:00:00 6.5 33 Noroeste 55 Noroeste 0 -- -- 68
2019-11-23 13:00:00 7 31 Noroeste 53 Noroeste 0 -- -- 69
2019-11-23 12:00:00 5.5 36 Noroeste 60 Noroeste 0 -- -- 75
2019-11-23 11:00:00 5.2 27 Noroeste 48 Noroeste 0 -- -- 82
2019-11-23 10:00:00 4.4 24 Noroeste 37 Noroeste 0.4 -- -- 86
2019-11-23 09:00:00 3.6 18 Noroeste 35 Oeste 0 -- -- 91
2019-11-23 08:00:00 3.2 22 Noroeste 40 Oeste 1.6 -- -- 90
2019-11-23 07:00:00 3.8 22 Oeste 38 Oeste 0.2 -- -- 88
2019-11-23 06:00:00 4.8 25 Oeste 42 Oeste 0 -- -- 86
2019-11-23 05:00:00 4 13 Noroeste 33 Oeste 0 -- -- 89
2019-11-23 04:00:00 5.3 21 Oeste 39 Oeste 0.4 -- -- 86
2019-11-23 03:00:00 5.9 15 Oeste 38 Oeste 0.4 -- -- 89
2019-11-23 02:00:00 6.2 21 Oeste 33 Oeste 0 -- -- 83
2019-11-23 01:00:00 7 24 Oeste 45 Oeste 0 -- -- 83
2019-11-23 00:00:00 7.6 23 Oeste 41 Oeste 0.2 -- -- 83
2019-11-22 23:00:00 7.5 20 Oeste 29 Oeste 0 -- -- 84
2019-11-22 22:00:00 7.5 21 Oeste 78 Oeste 0.2 -- -- 85
2019-11-22 21:00:00 9.5 34 Oeste 71 Oeste 0 -- -- 70
2019-11-22 20:00:00 8.4 22 Sur 57 Sur 0 -- -- 89
2019-11-22 19:00:00 8.1 30 Sur 51 Sur 0 -- -- 94
2019-11-22 18:00:00 8.4 36 Sur 48 Sur 0.2 -- -- 91
2019-11-22 17:00:00 8.9 29 Sur 59 Sur 0 -- -- 88
2019-11-22 16:00:00 8.5 33 Sur 49 Sur 1 -- -- 89
2019-11-22 15:00:00 9.8 31 Sur 46 Sudoeste 0 -- -- 79
2019-11-22 14:00:00 11 30 Sudoeste 49 Sudoeste 0 -- -- 70
2019-11-22 13:00:00 10.1 27 Sudoeste 42 Sudoeste 0 -- -- 72
2019-11-22 12:00:00 8.8 11 Sur 35 Sur 0 -- -- 82
2019-11-22 11:00:00 6.5 31 Sur 42 Sur 0 -- -- 91
2019-11-22 10:00:00 5.4 26 Sur 35 Sur 0 -- -- 92
2019-11-22 09:00:00 5 27 Sur 38 Sur 0 -- -- 90
2019-11-22 08:00:00 4.6 25 Sur 33 Sur 0 -- -- 89
2019-11-22 07:00:00 4 15 Sur 23 Sur 0 -- -- 88
2019-11-22 06:00:00 3.4 14 Sur 19 Sur 0 -- -- 93
2019-11-22 05:00:00 2.1 4 Sudoeste 9 Sudoeste 0 -- -- 94
2019-11-22 04:00:00 1.4 6 Sudoeste 12 Sur 0 -- -- 93
2019-11-22 03:00:00 1.6 4 Sur 11 Sur 0 -- -- 92
2019-11-22 02:00:00 2.6 8 Sur 12 Sur 0 -- -- 91
2019-11-22 01:00:00 4 10 Sudoeste 17 Sudoeste 0 -- -- 87
2019-11-22 00:00:00 4.6 9 Sudoeste 15 Oeste 0 -- -- 88
2019-11-21 23:00:00 4.7 13 Sudoeste 21 Sudoeste 0 -- -- 85
2019-11-21 22:00:00 4.2 11 Sudoeste 24 Sur 0 -- -- 85
2019-11-21 21:00:00 4.5 17 Sudoeste 22 Sudoeste 0 -- -- 84
2019-11-21 20:00:00 3.2 3 Sur 10 Sudoeste 0 -- -- 89
2019-11-21 19:00:00 4.3 10 Sudoeste 16 Oeste 0 -- -- 84
2019-11-21 18:00:00 6.4 13 Oeste 25 Noroeste 0 -- -- 79
2019-11-21 17:00:00 7.9 14 Oeste 30 Oeste 0 -- -- 73
2019-11-21 16:00:00 8.2 18 Oeste 34 Oeste 0 -- -- 69
2019-11-21 15:00:00 8 21 Oeste 46 Oeste 0 -- -- 72
2019-11-21 14:00:00 7.9 31 Oeste 49 Oeste 0 -- -- 72
2019-11-21 13:00:00 7.9 33 Oeste 48 Oeste 0.2 -- -- 71
2019-11-21 12:00:00 7.8 15 Sudoeste 28 Sudoeste 0 -- -- 77
2019-11-21 11:00:00 6.3 10 Sudoeste 22 Oeste 0 -- -- 80
2019-11-21 10:00:00 5.5 8 Oeste 14 Sudoeste 0 -- -- 82
2019-11-21 09:00:00 3.1 3 Sudeste 6 Sur 0 -- -- 90
2019-11-21 08:00:00 -- -- -- -- -- -- -- -- --
2019-11-21 07:00:00 -- -- -- -- -- -- -- -- --
2019-11-21 06:00:00 -- -- -- -- -- -- -- -- --
2019-11-21 05:00:00 -- -- -- -- -- -- -- -- --
2019-11-21 04:00:00 -- -- -- -- -- -- -- -- --
2019-11-21 03:00:00 -- -- -- -- -- -- -- -- --
2019-11-21 02:00:00 -- -- -- -- -- -- -- -- --
2019-11-21 01:00:00 -- -- -- -- -- -- -- -- --
2019-11-21 00:00:00 -- -- -- -- -- -- -- -- --
2019-11-20 23:00:00 -- -- -- -- -- -- -- -- --
2019-11-20 22:00:00 -- -- -- -- -- -- -- -- --
2019-11-20 21:00:00 -- -- -- -- -- -- -- -- --
2019-11-20 20:00:00 -- -- -- -- -- -- -- -- --
2019-11-20 19:00:00 6.1 11 Oeste 22 Oeste 0 -- -- 72
2019-11-20 18:00:00 6.4 9 Oeste 26 Oeste 0 -- -- 67
2019-11-20 17:00:00 7.8 12 Oeste 26 Oeste 0 -- -- 55
2019-11-20 16:00:00 9.3 14 Oeste 25 Noroeste 0 -- -- 49
2019-11-20 15:00:00 9.1 9 Sur 16 Sudoeste 0 -- -- 50
2019-11-20 14:00:00 8.3 10 Sudoeste 19 Sur 0 -- -- 55
2019-11-20 13:00:00 7 13 Sur 19 Sur 0 -- -- 64
2019-11-20 12:00:00 4.6 13 Sur 17 Sur 0 -- -- 75
2019-11-20 11:00:00 1.9 0 Calma 5 Norte 0 -- -- 90
2019-11-20 10:00:00 -0.4 4 Nordeste 6 Nordeste 0 -- -- 94
2019-11-20 09:00:00 -1.2 4 Oeste 8 Sudoeste 0 -- -- 94
2019-11-20 08:00:00 -2.8 3 Este 4 Sudoeste 0 -- -- 94
2019-11-20 07:00:00 -2.1 0 Calma 6 Sudoeste 0 -- -- 95
2019-11-20 06:00:00 -2.1 3 Sur 5 Sur 0 -- -- 94
2019-11-20 05:00:00 -1.6 2 Noroeste 5 Este 0 -- -- 94
2019-11-20 04:00:00 -0.9 0 Calma 5 Sur 0 -- -- 92
2019-11-20 03:00:00 -0.8 5 Sur 6 Sur 0 -- -- 91
2019-11-20 02:00:00 0.4 3 Este 12 Sudoeste 0 -- -- 88
2019-11-20 01:00:00 1.1 3 Sudoeste 13 Sudoeste 0 -- -- 88
2019-11-20 00:00:00 1.2 2 Norte 6 Noroeste 0 -- -- 87
2019-11-19 23:00:00 0.8 3 Este 6 Este 0 -- -- 88
2019-11-19 22:00:00 1.2 5 Sudoeste 20 Oeste 0 -- -- 87
2019-11-19 21:00:00 2.1 11 Oeste 17 Oeste 0 -- -- 83
2019-11-19 20:00:00 1.1 9 Oeste 11 Oeste 0 -- -- 86
2019-11-19 19:00:00 2.1 6 Oeste 13 Sudoeste 0 -- -- 83
2019-11-19 18:00:00 4.3 5 Oeste 11 Noroeste 0 -- -- 77
2019-11-19 17:00:00 6.8 6 Norte 20 Noroeste 0 -- -- 65
2019-11-19 16:00:00 7.5 9 Norte 21 Oeste 0 -- -- 60
2019-11-19 15:00:00 7.6 9 Noroeste 24 Noroeste 0 -- -- 58
2019-11-19 14:00:00 6.8 10 Noroeste 24 Norte 0 -- -- 60
2019-11-19 13:00:00 5.5 13 Noroeste 28 Noroeste 0 -- -- 67
2019-11-19 12:00:00 5 18 Noroeste 30 Noroeste 0 -- -- 71
2019-11-19 11:00:00 3.3 12 Noroeste 19 Noroeste 0 -- -- 76
2019-11-19 10:00:00 0.2 2 Oeste 6 Noroeste 0 -- -- 87
2019-11-19 09:00:00 -2.4 3 Sudeste 9 Sudeste 0 -- -- 92
2019-11-19 08:00:00 -2.7 3 Noroeste 10 Noroeste 0 -- -- 88
2019-11-19 07:00:00 -1.8 8 Oeste 12 Oeste 0 -- -- 90
2019-11-19 06:00:00 -3.1 8 Sudoeste 10 Sudoeste 0 -- -- 90
2019-11-19 05:00:00 -1.9 2 Noroeste 15 Sudoeste 0 -- -- 88
2019-11-19 04:00:00 -1.3 9 Oeste 15 Oeste 0 -- -- 87
2019-11-19 03:00:00 -0.7 11 Oeste 17 Oeste 0 -- -- 86
2019-11-19 02:00:00 -0.2 9 Noroeste 20 Noroeste 0 -- -- 84
2019-11-19 01:00:00 0.3 10 Noroeste 19 Oeste 0 -- -- 85
2019-11-19 00:00:00 -0.2 8 Noroeste 14 Noroeste 0 -- -- 86
2019-11-18 23:00:00 0.4 9 Noroeste 19 Oeste 0 -- -- 86
2019-11-18 22:00:00 0.1 4 Noroeste 14 Norte 0 -- -- 86
2019-11-18 21:00:00 1.2 11 Norte 19 Noroeste 0 -- -- 82
2019-11-18 20:00:00 1.3 9 Norte 24 Norte 0 -- -- 82
2019-11-18 19:00:00 2.3 15 Norte 24 Norte 0 -- -- 82
2019-11-18 18:00:00 3.3 14 Norte 36 Norte 0 -- -- 75
2019-11-18 17:00:00 5.2 21 Norte 38 Noroeste 0 -- -- 65
2019-11-18 16:00:00 6.1 22 Norte 40 Norte 0 -- -- 66
2019-11-18 15:00:00 5.5 22 Norte 40 Norte 0 -- -- 67
2019-11-18 14:00:00 5.6 25 Norte 45 Norte 0 -- -- 65
2019-11-18 13:00:00 5.3 25 Norte 44 Norte 0 -- -- 70
2019-11-18 12:00:00 4.1 27 Norte 41 Norte 0 -- -- 78
2019-11-18 11:00:00 3.1 15 Norte 26 Noroeste 0 -- -- 86
2019-11-18 10:00:00 2 15 Noroeste 24 Noroeste 0 -- -- 92
2019-11-18 09:00:00 1.3 12 Norte 19 Noroeste 0 -- -- 94
2019-11-18 08:00:00 1.4 9 Norte 24 Noroeste 0 -- -- 93
2019-11-18 07:00:00 2 15 Noroeste 23 Norte 0 -- -- 93
2019-11-18 06:00:00 2 13 Norte 24 Noroeste 0.2 -- -- 94
2019-11-18 05:00:00 1.9 11 Norte 23 Noroeste 0 -- -- 93
2019-11-18 04:00:00 2.3 13 Noroeste 22 Noroeste 0 -- -- 90
2019-11-18 03:00:00 2.2 10 Oeste 16 Noroeste 0 -- -- 90
2019-11-18 02:00:00 2 11 Noroeste 24 Oeste 0 -- -- 89
2019-11-18 01:00:00 1.7 8 Oeste 19 Noroeste 0 -- -- 91
2019-11-18 00:00:00 3 13 Oeste 22 Oeste 0 -- -- 90
2019-11-17 23:00:00 3.5 12 Noroeste 19 Oeste 0 -- -- 92
2019-11-17 22:00:00 4.2 10 Oeste 26 Oeste 3 -- -- 92
2019-11-17 21:00:00 4.5 12 Noroeste 22 Oeste 0.8 -- -- 93
2019-11-17 20:00:00 4.1 3 Norte 21 Noroeste 0.2 -- -- 91
2019-11-17 19:00:00 4.2 16 Oeste 35 Oeste 1.6 -- -- 92
2019-11-17 18:00:00 4.5 21 Oeste 37 Oeste 0 -- -- 88
2019-11-17 17:00:00 5 23 Oeste 42 Oeste 0 -- -- 84
2019-11-17 16:00:00 5 28 Oeste 48 Oeste 0.2 -- -- 85
2019-11-17 15:00:00 4.8 27 Oeste 53 Oeste 0.6 -- -- 86
2019-11-17 14:00:00 7.8 30 Oeste 45 Oeste 0 -- -- 70
2019-11-17 13:00:00 7.7 26 Oeste 44 Oeste 0 -- -- 67
2019-11-17 12:00:00 6.4 30 Oeste 44 Oeste 0 -- -- 68
2019-11-17 11:00:00 4.5 18 Noroeste 37 Noroeste 0 -- -- 74
2019-11-17 10:00:00 2.6 22 Noroeste 34 Noroeste 0 -- -- 77
2019-11-17 09:00:00 1.2 9 Norte 17 Noroeste 0 -- -- 80
2019-11-17 08:00:00 0.6 10 Noroeste 29 Oeste 0 -- -- 81
2019-11-17 07:00:00 0.2 16 Noroeste 26 Noroeste 0 -- -- 83
2019-11-17 06:00:00 -0.4 8 Noroeste 21 Noroeste 0 -- -- 84
2019-11-17 05:00:00 -0.7 11 Noroeste 20 Oeste 0 -- -- 86
2019-11-17 04:00:00 -1.2 5 Nordeste 13 Norte 0 -- -- 88
2019-11-17 03:00:00 -0.1 5 Noroeste 17 Noroeste 0 -- -- 84
2019-11-17 02:00:00 0.3 12 Oeste 17 Oeste 0 -- -- 83
2019-11-17 01:00:00 0.9 9 Oeste 20 Oeste 0 -- -- 80
2019-11-17 00:00:00 1.4 12 Noroeste 19 Noroeste 0 -- -- 79
2019-11-16 23:00:00 0.5 6 Oeste 10 Oeste 0 -- -- 82
2019-11-16 22:00:00 1.4 9 Oeste 19 Noroeste 0 -- -- 78
2019-11-16 21:00:00 2.2 13 Oeste 29 Noroeste 0 -- -- 75
2019-11-16 20:00:00 1.8 14 Oeste 22 Oeste 0 -- -- 77
2019-11-16 19:00:00 2.6 12 Noroeste 25 Noroeste 0 -- -- 75
2019-11-16 18:00:00 3.8 15 Noroeste 31 Noroeste 0 -- -- 70
2019-11-16 17:00:00 4.8 19 Noroeste 31 Noroeste 0 -- -- 69
2019-11-16 16:00:00 4.1 18 Norte 31 Norte 0 -- -- 73
2019-11-16 15:00:00 4.7 14 Noroeste 23 Noroeste 0 -- -- 70
2019-11-16 14:00:00 4.2 19 Noroeste 31 Noroeste 0 -- -- 69
2019-11-16 13:00:00 4.3 14 Noroeste 33 Norte 0 -- -- 70
2019-11-16 12:00:00 3.3 16 Norte 25 Noroeste 0 -- -- 75
2019-11-16 11:00:00 1.9 4 Norte 15 Norte 0 -- -- 85
2019-11-16 10:00:00 0.5 8 Norte 18 Norte 0 -- -- 88
2019-11-16 09:00:00 -0.2 7 Norte 18 Norte 0 -- -- 91
2019-11-16 08:00:00 -0.2 12 Norte 21 Norte 0 -- -- 91
2019-11-16 07:00:00 0.4 17 Norte 27 Norte 0 -- -- 91
2019-11-16 06:00:00 0.5 12 Noroeste 18 Noroeste 0 -- -- 93
2019-11-16 05:00:00 1 7 Norte 22 Noroeste 0 -- -- 91
2019-11-16 04:00:00 1.1 11 Norte 21 Noroeste 0 -- -- 93
2019-11-16 03:00:00 0.9 9 Norte 15 Norte 0 -- -- 93
2019-11-16 02:00:00 0.8 8 Oeste 13 Noroeste 0 -- -- 92
2019-11-16 01:00:00 0.9 6 Norte 19 Noroeste 0 -- -- 91
2019-11-16 00:00:00 1.3 8 Noroeste 21 Norte 0 -- -- 89
2019-11-15 23:00:00 2.1 12 Noroeste 20 Noroeste 0.2 -- -- 85
2019-11-15 22:00:00 2.5 10 Noroeste 25 Noroeste 0.6 -- -- 86
2019-11-15 21:00:00 2.8 7 Noroeste 19 Noroeste 0 -- -- 83
2019-11-15 20:00:00 3.1 11 Oeste 32 Noroeste 0 -- -- 79
2019-11-15 19:00:00 3.4 16 Noroeste 28 Noroeste 0 -- -- 76
2019-11-15 18:00:00 3.7 13 Noroeste 23 Noroeste 0 -- -- 76
2019-11-15 17:00:00 4.2 18 Noroeste 41 Noroeste 0 -- -- 72
2019-11-15 16:00:00 4.9 25 Noroeste 43 Noroeste 0 -- -- 65
2019-11-15 15:00:00 4.5 26 Noroeste 42 Noroeste 0 -- -- 71
2019-11-15 14:00:00 4.7 28 Noroeste 44 Noroeste 0 -- -- 70
2019-11-15 13:00:00 4.6 31 Noroeste 49 Noroeste 0 -- -- 74
2019-11-15 12:00:00 4.2 23 Noroeste 41 Noroeste 0 -- -- 76
2019-11-15 11:00:00 3.2 22 Noroeste 39 Oeste 0 -- -- 80
2019-11-15 10:00:00 2.6 19 Oeste 32 Oeste 0 -- -- 82
2019-11-15 09:00:00 1.1 18 Noroeste 26 Oeste 0 -- -- 88
2019-11-15 08:00:00 0.8 10 Noroeste 27 Noroeste 0 -- -- 86
2019-11-15 07:00:00 0.4 10 Oeste 23 Oeste 0 -- -- 86
2019-11-15 06:00:00 0.3 8 Oeste 33 Noroeste 0 -- -- 85
2019-11-15 05:00:00 0.9 21 Noroeste 35 Noroeste 0 -- -- 83
2019-11-15 04:00:00 1.2 9 Noroeste 23 Noroeste 0 -- -- 88
2019-11-15 03:00:00 1.1 11 Noroeste 24 Noroeste 0 -- -- 90
2019-11-15 02:00:00 1 13 Noroeste 22 Oeste 0 -- -- 88
2019-11-15 01:00:00 1 11 Noroeste 29 Noroeste 0 -- -- 89
2019-11-15 00:00:00 0.7 19 Noroeste 35 Noroeste 0 -- -- 88
2019-11-14 23:00:00 1.3 22 Noroeste 37 Noroeste 0 -- -- 85
2019-11-14 22:00:00 1 9 Noroeste 31 Noroeste 1 -- -- 93
2019-11-14 21:00:00 2.4 12 Oeste 28 Oeste 0 -- -- 86
2019-11-14 20:00:00 2.4 16 Oeste 38 Oeste 0 -- -- 84
2019-11-14 19:00:00 1.7 8 Sudeste 24 Oeste 0 -- -- 84
2019-11-14 18:00:00 3 7 Oeste 46 Oeste 0 -- -- 78
2019-11-14 17:00:00 4.7 21 Oeste 41 Oeste 0 -- -- 61
2019-11-14 16:00:00 5 26 Oeste 46 Oeste 0 -- -- 64
2019-11-14 15:00:00 4.9 24 Noroeste 46 Oeste 0.2 -- -- 65
2019-11-14 14:00:00 6 24 Noroeste 47 Noroeste 0 -- -- 57
2019-11-14 13:00:00 5.3 25 Noroeste 46 Oeste 0 -- -- 69
2019-11-14 12:00:00 4.5 24 Oeste 36 Oeste 0 -- -- 82
2019-11-14 11:00:00 2.3 6 Noroeste 19 Sudoeste 0 -- -- 94
2019-11-14 10:00:00 1.1 7 Noroeste 39 Noroeste 0.6 -- -- 96
2019-11-14 09:00:00 1.6 26 Noroeste 48 Norte 4.2 -- -- 94
2019-11-14 08:00:00 6.2 27 Oeste 49 Oeste 0.2 -- -- 82
2019-11-14 07:00:00 6.6 26 Oeste 52 Oeste 0 -- -- 78
2019-11-14 06:00:00 7 28 Oeste 56 Oeste 0 -- -- 75
2019-11-14 05:00:00 7.4 25 Oeste 40 Oeste 0 -- -- 77
2019-11-14 04:00:00 7.7 22 Oeste 44 Oeste 0 -- -- 81
2019-11-14 03:00:00 7.8 23 Oeste 39 Oeste 0 -- -- 80
2019-11-14 02:00:00 7.5 9 Oeste 29 Oeste 0 -- -- 76
2019-11-14 01:00:00 7.6 18 Oeste 44 Oeste 0 -- -- 77
2019-11-14 00:00:00 4.3 4 Noroeste 15 Sudoeste 0 -- -- 86
2019-11-13 23:00:00 3.6 8 Sudoeste 13 Sudoeste 0 -- -- 85
2019-11-13 22:00:00 3.6 3 Sur 10 Noroeste 0 -- -- 86
2019-11-13 21:00:00 4.4 8 Oeste 11 Oeste 0 -- -- 85
2019-11-13 20:00:00 5.8 9 Oeste 17 Oeste 0 -- -- 81
2019-11-13 19:00:00 6.6 6 Oeste 31 Oeste 0 -- -- 77
2019-11-13 18:00:00 8.3 9 Noroeste 22 Noroeste 0 -- -- 71
2019-11-13 17:00:00 9.9 10 Norte 28 Norte 0 -- -- 63
2019-11-13 16:00:00 10.1 21 Noroeste 34 Noroeste 0 -- -- 57
2019-11-13 15:00:00 9.9 20 Norte 35 Noroeste 0 -- -- 64
2019-11-13 14:00:00 9.2 20 Norte 34 Norte 0 -- -- 69
2019-11-13 13:00:00 8 12 Noroeste 28 Norte 0 -- -- 81
2019-11-13 12:00:00 7.9 17 Norte 30 Noroeste 0 -- -- 83
2019-11-13 11:00:00 6.8 19 Noroeste 30 Noroeste 0 -- -- 91
2019-11-13 10:00:00 6 16 Norte 36 Norte 0.2 -- -- 92
2019-11-13 09:00:00 7.2 24 Norte 38 Norte 0.4 -- -- 94
2019-11-13 08:00:00 8.2 21 Noroeste 44 Noroeste 0.6 -- -- 94
2019-11-13 07:00:00 7.4 15 Oeste 30 Oeste 0.4 -- -- 93
2019-11-13 06:00:00 7.3 16 Oeste 26 Noroeste 1.4 -- -- 92
2019-11-13 05:00:00 7.1 9 Oeste 28 Oeste 1.6 -- -- 91
2019-11-13 04:00:00 7 15 Oeste 33 Oeste 1.8 -- -- 91
2019-11-13 03:00:00 6.7 14 Oeste 30 Oeste 0.6 -- -- 90
2019-11-13 02:00:00 6.2 15 Oeste 26 Oeste 0 -- -- 91
2019-11-13 01:00:00 5.8 19 Oeste 29 Oeste 0 -- -- 87
2019-11-13 00:00:00 5.4 18 Oeste 32 Oeste 0.2 -- -- 86
2019-11-12 23:00:00 4.8 21 Oeste 34 Oeste 0.6 -- -- 87
2019-11-12 22:00:00 5.2 17 Noroeste 25 Noroeste 0 -- -- 84
2019-11-12 21:00:00 5.4 11 Noroeste 27 Noroeste 0 -- -- 80
2019-11-12 20:00:00 5.1 19 Oeste 26 Oeste 0 -- -- 78
2019-11-12 19:00:00 5 11 Oeste 23 Noroeste 0 -- -- 77
2019-11-12 18:00:00 6 14 Noroeste 33 Noroeste 0 -- -- 75
2019-11-12 17:00:00 7.6 20 Noroeste 33 Noroeste 0 -- -- 65
2019-11-12 16:00:00 7.8 19 Noroeste 30 Noroeste 0 -- -- 64
2019-11-12 15:00:00 7.7 19 Noroeste 35 Noroeste 0 -- -- 62
2019-11-12 14:00:00 8 24 Noroeste 40 Norte 0 -- -- 60
2019-11-12 13:00:00 7.4 19 Noroeste 34 Noroeste 0 -- -- 66
2019-11-12 12:00:00 6.5 15 Norte 27 Norte 0 -- -- 75
2019-11-12 11:00:00 5.7 19 Noroeste 30 Noroeste 0 -- -- 79
2019-11-12 10:00:00 3.6 14 Norte 22 Norte 0 -- -- 87
2019-11-12 09:00:00 1.6 8 Noroeste 12 Noroeste 0 -- -- 91
2019-11-12 08:00:00 0.7 5 Norte 8 Norte 0 -- -- 92
2019-11-12 07:00:00 0.6 6 Norte 15 Noroeste 0 -- -- 89
2019-11-12 06:00:00 0.9 7 Norte 20 Noroeste 0 -- -- 88
2019-11-12 05:00:00 1.8 11 Noroeste 21 Noroeste 0 -- -- 83
2019-11-12 04:00:00 1.2 4 Norte 13 Noroeste 0 -- -- 87
2019-11-12 03:00:00 1.8 9 Noroeste 23 Norte 0 -- -- 88
2019-11-12 02:00:00 1.3 14 Noroeste 21 Noroeste 0 -- -- 88
2019-11-12 01:00:00 1.4 8 Norte 20 Norte 0 -- -- 86
2019-11-12 00:00:00 2.4 13 Norte 21 Norte 0 -- -- 83